Time;durP1;ratioP1;P1;durP2;ratioP2;P2;SDS_P1;SDS_P2;PMS_P1;PMS_P2;Temp;Humidity;BMP_temperature;BMP_pressure;BME280_temperature;BME280_humidity;BME280_pressure;Samples;Min_cycle;Max_cycle;Signal;HPM_P1;HPM_P2
2023/01/18 00:00:31;;;;;;;5.22;3.10;;;-0.30;99.90;;;;;;5003877;28;20125;-54
2023/01/18 00:02:57;;;;;;;6.07;3.38;;;-0.20;99.90;;;;;;5002676;28;20291;-55
2023/01/18 00:05:23;;;;;;;6.05;3.38;;;-0.30;99.90;;;;;;4985173;28;20105;-55
2023/01/18 00:07:51;;;;;;;6.63;3.25;;;-0.50;99.90;;;;;;5002981;28;20104;-55
2023/01/18 00:10:18;;;;;;;6.93;3.55;;;-0.60;99.90;;;;;;5003161;28;20046;-54
2023/01/18 00:12:44;;;;;;;5.47;3.78;;;-0.50;99.90;;;;;;5003962;28;20113;-55
2023/01/18 00:15:10;;;;;;;6.50;3.40;;;-0.50;99.90;;;;;;5005996;28;20052;-55
2023/01/18 00:17:46;;;;;;;7.22;3.90;;;-0.30;99.90;;;;;;5007561;28;20121;-55
2023/01/18 00:20:16;;;;;;;7.30;3.70;;;-0.40;99.90;;;;;;5007974;28;20058;-56
2023/01/18 00:22:42;;;;;;;8.82;4.30;;;-0.70;99.90;;;;;;5007769;28;20041;-57
2023/01/18 00:25:09;;;;;;;7.45;4.13;;;-0.50;99.90;;;;;;5007700;28;20588;-57
2023/01/18 00:27:36;;;;;;;7.47;4.15;;;-0.70;99.90;;;;;;5007123;28;20045;-56
2023/01/18 00:30:06;;;;;;;4.90;3.55;;;-0.70;99.90;;;;;;5007830;28;20052;-57
2023/01/18 00:32:32;;;;;;;6.32;3.83;;;-0.50;99.90;;;;;;5007046;28;20096;-58
2023/01/18 00:34:59;;;;;;;7.03;4.15;;;-0.60;99.90;;;;;;5008082;28;20061;-56
2023/01/18 00:37:25;;;;;;;7.68;4.47;;;0.70;99.90;;;;;;4989918;28;20073;-56
2023/01/18 00:39:51;;;;;;;7.35;3.97;;;-0.50;99.90;;;;;;4989528;28;20058;-55
2023/01/18 00:45:01;;;;;;;9.95;4.10;;;-0.50;99.90;;;;;;5007214;28;20129;-56
2023/01/18 00:47:27;;;;;;;6.50;4.18;;;-1.00;99.90;;;;;;5007857;28;20437;-57
2023/01/18 00:49:52;;;;;;;8.10;4.47;;;-0.60;99.90;;;;;;5007345;28;20053;-54
2023/01/18 00:52:18;;;;;;;7.15;4.55;;;-0.80;99.90;;;;;;5007777;28;20482;-57
2023/01/18 00:54:44;;;;;;;8.13;4.80;;;-0.90;99.90;;;;;;5006914;28;20050;-56
2023/01/18 00:57:10;;;;;;;9.48;4.50;;;-0.60;99.90;;;;;;4989638;28;20049;-56
2023/01/18 00:59:35;;;;;;;7.45;4.43;;;0.70;99.90;;;;;;5006426;28;20041;-55
2023/01/18 01:02:01;;;;;;;7.43;4.45;;;-1.00;99.90;;;;;;5007334;28;20052;-57
2023/01/18 01:07:11;;;;;;;6.33;4.40;;;-0.70;99.90;;;;;;5006866;28;20054;-56
2023/01/18 01:09:37;;;;;;;8.30;4.50;;;-0.70;99.90;;;;;;5006964;28;20056;-56
2023/01/18 01:26:07;;;;;;;7.72;4.70;;;-1.00;99.90;;;;;;4969183;28;20058;-54
2023/01/18 01:28:49;;;;;;;7.75;4.90;;;-1.00;99.90;;;;;;4986000;28;20492;-56
2023/01/18 01:31:17;;;;;;;8.80;5.05;;;0.20;99.90;;;;;;4987362;28;20046;-56
2023/01/18 01:33:47;;;;;;;7.75;5.03;;;-0.30;99.90;;;;;;4986380;28;20042;-55
2023/01/18 01:36:16;;;;;;;9.18;4.63;;;-1.00;99.90;;;;;;4986943;28;20073;-56
2023/01/18 01:38:42;;;;;;;8.18;4.75;;;-0.50;99.90;;;;;;4969187;28;20057;-57
2023/01/18 01:41:17;;;;;;;7.55;4.65;;;-0.60;99.90;;;;;;4986923;28;20050;-56
2023/01/18 01:43:46;;;;;;;8.07;4.35;;;-0.50;99.90;;;;;;4986360;28;20181;-56
2023/01/18 01:46:33;;;;;;;10.18;5.00;;;-0.40;99.90;;;;;;4987095;28;20443;-57
2023/01/18 01:49:22;;;;;;;5.82;4.50;;;-0.90;99.90;;;;;;4986514;28;20085;-54
2023/01/18 01:51:54;;;;;;;6.05;4.78;;;-0.90;99.90;;;;;;4986412;28;20101;-56
2023/01/18 01:54:28;;;;;;;8.70;4.68;;;-0.20;99.90;;;;;;4969129;28;20069;-56
2023/01/18 01:57:04;;;;;;;8.60;5.27;;;-0.50;99.90;;;;;;4986603;28;20395;-56
2023/01/18 01:59:33;;;;;;;8.55;4.75;;;-0.80;99.90;;;;;;4985641;28;20069;-55
2023/01/18 02:01:59;;;;;;;8.63;5.13;;;-0.70;99.90;;;;;;4986150;28;20459;-55
2023/01/18 02:04:25;;;;;;;8.60;4.75;;;-0.70;99.90;;;;;;4985842;28;20106;-57
2023/01/18 02:06:51;;;;;;;8.52;4.80;;;-1.00;99.90;;;;;;4986624;28;20054;-55
2023/01/18 02:09:21;;;;;;;7.13;4.80;;;-1.00;99.90;;;;;;5070098;23;20051;-57
2023/01/18 02:11:50;;;;;;;8.10;4.88;;;-0.50;99.90;;;;;;5007617;28;20489;-57
2023/01/18 02:14:16;;;;;;;9.73;5.47;;;-0.80;99.90;;;;;;5006230;28;20049;-57
2023/01/18 02:17:27;;;;;;;9.27;5.60;;;-0.90;99.90;;;;;;5005795;28;20073;-57
2023/01/18 02:20:07;;;;;;;9.93;5.80;;;-1.00;99.90;;;;;;5006041;28;20054;-57
2023/01/18 02:22:51;;;;;;;8.65;5.80;;;-0.80;99.90;;;;;;5006627;28;20426;-56
2023/01/18 02:25:35;;;;;;;10.07;5.53;;;-1.00;99.90;;;;;;5005984;28;20050;-55
2023/01/18 02:28:09;;;;;;;9.48;6.10;;;-1.10;99.90;;;;;;5005274;28;20045;-57
2023/01/18 02:30:51;;;;;;;9.80;5.70;;;-0.90;99.90;;;;;;5006067;28;20100;-57
2023/01/18 02:33:43;;;;;;;11.57;6.30;;;-0.70;99.90;;;;;;5005506;28;20124;-56
2023/01/18 02:36:19;;;;;;;8.82;6.05;;;-1.20;99.90;;;;;;5005544;28;20046;-57
2023/01/18 02:38:45;;;;;;;13.05;6.15;;;-1.20;99.90;;;;;;5005339;28;20379;-57
2023/01/18 02:47:13;;;;;;;10.68;6.90;;;-1.20;99.90;;;;;;5005445;28;20490;-55
2023/01/18 02:49:38;;;;;;;10.00;5.60;;;-0.70;99.90;;;;;;5005978;28;20482;-55
2023/01/18 02:52:07;;;;;;;8.50;6.13;;;-1.20;99.90;;;;;;5005239;28;20092;-56
2023/01/18 02:54:37;;;;;;;9.23;6.45;;;-0.70;99.90;;;;;;5005310;28;20510;-56
2023/01/18 02:57:10;;;;;;;10.55;7.00;;;-1.50;99.90;;;;;;5005111;28;20064;-57
2023/01/18 02:59:45;;;;;;;11.68;7.25;;;-1.50;99.90;;;;;;5005742;28;20045;-57
2023/01/18 03:02:15;;;;;;;11.35;7.45;;;-1.00;99.90;;;;;;5005174;28;20046;-55
2023/01/18 03:04:56;;;;;;;9.43;7.07;;;-1.50;99.90;;;;;;5004662;28;20580;-58
2023/01/18 03:07:47;;;;;;;9.40;7.03;;;0.30;99.90;;;;;;5005297;28;20038;-57
2023/01/18 03:10:14;;;;;;;10.30;7.50;;;-1.00;99.90;;;;;;5005183;28;20141;-56
2023/01/18 03:12:47;;;;;;;10.93;7.25;;;-1.00;99.90;;;;;;5004828;28;20042;-56
2023/01/18 03:15:48;;;;;;;11.07;7.85;;;-0.90;99.90;;;;;;5004807;28;20289;-57
2023/01/18 03:18:23;;;;;;;11.38;7.70;;;-1.10;99.90;;;;;;5001471;28;20558;-55
2023/01/18 03:20:54;;;;;;;13.57;7.65;;;-1.20;99.90;;;;;;5003577;28;20085;-54
2023/01/18 03:23:37;;;;;;;11.68;8.00;;;-0.90;99.90;;;;;;5005009;28;20128;-56
2023/01/18 03:26:08;;;;;;;11.07;8.52;;;-1.50;99.90;;;;;;5005074;28;20038;-55
2023/01/18 03:35:06;;;;;;;9.93;7.32;;;-1.00;99.90;;;;;;5001243;28;20437;-53
2023/01/18 03:37:36;;;;;;;13.48;8.50;;;-1.50;99.90;;;;;;5004534;28;20057;-57
2023/01/18 03:40:08;;;;;;;11.02;8.10;;;-1.50;99.90;;;;;;5004916;28;20088;-56
2023/01/18 03:42:59;;;;;;;11.40;8.35;;;-1.50;99.90;;;;;;5003604;28;20046;-57
2023/01/18 03:45:36;;;;;;;10.88;8.32;;;-0.90;99.90;;;;;;5005016;28;20457;-57
2023/01/18 03:48:04;;;;;;;12.60;8.38;;;-1.10;99.90;;;;;;5004232;28;20056;-58
2023/01/18 03:50:44;;;;;;;11.20;8.32;;;-1.00;99.90;;;;;;5006917;28;20049;-57
2023/01/18 03:53:17;;;;;;;16.67;9.25;;;-1.20;99.90;;;;;;5008524;28;20410;-55
2023/01/18 03:55:48;;;;;;;12.75;9.40;;;0.20;99.90;;;;;;5008309;28;20498;-57
2023/01/18 03:58:19;;;;;;;13.10;9.80;;;-0.80;99.90;;;;;;5007651;28;20044;-58
2023/01/18 04:00:45;;;;;;;13.48;9.32;;;-1.00;99.90;;;;;;5007793;28;20417;-56
2023/01/18 04:03:10;;;;;;;12.85;9.40;;;-1.40;99.90;;;;;;5008826;28;20041;-56
2023/01/18 04:05:36;;;;;;;15.45;9.02;;;-1.60;99.90;;;;;;5008346;28;20425;-54
2023/01/18 04:08:02;;;;;;;13.50;9.20;;;-1.50;99.90;;;;;;5007692;28;20379;-55
2023/01/18 04:10:27;;;;;;;12.00;8.73;;;-1.20;99.90;;;;;;5007868;28;20073;-55
2023/01/18 04:12:53;;;;;;;12.77;9.07;;;-1.10;99.90;;;;;;5007711;28;20080;-54
2023/01/18 04:15:19;;;;;;;14.80;10.00;;;-0.20;99.90;;;;;;5007695;28;20228;-55
2023/01/18 04:17:44;;;;;;;15.07;9.63;;;-1.10;99.90;;;;;;5008292;28;20509;-57
2023/01/18 04:20:11;;;;;;;13.85;10.23;;;-1.10;99.90;;;;;;5008465;28;20084;-55
2023/01/18 04:22:36;;;;;;;15.98;10.55;;;-1.20;99.90;;;;;;5006687;28;20053;-53
2023/01/18 04:25:02;;;;;;;16.80;11.75;;;-1.60;99.90;;;;;;5007602;28;20049;-55
2023/01/18 04:27:28;;;;;;;14.15;10.25;;;-1.70;99.90;;;;;;5007330;28;20041;-57
2023/01/18 04:29:54;;;;;;;15.30;11.45;;;-1.70;99.90;;;;;;5007861;28;20038;-56
2023/01/18 04:32:19;;;;;;;14.13;11.38;;;-1.70;99.90;;;;;;5007761;28;20077;-57
2023/01/18 04:34:45;;;;;;;20.23;11.85;;;-1.70;99.90;;;;;;5007643;28;20052;-55
2023/01/18 04:37:11;;;;;;;15.25;10.82;;;-1.70;99.90;;;;;;5008022;28;20117;-55
2023/01/18 04:39:36;;;;;;;15.30;11.55;;;-1.80;99.90;;;;;;5007422;28;20301;-57
2023/01/18 04:42:02;;;;;;;14.20;10.65;;;-1.50;99.90;;;;;;5006915;28;20076;-53
2023/01/18 04:44:28;;;;;;;16.30;12.05;;;-1.70;99.90;;;;;;5007724;28;20049;-54
2023/01/18 04:46:53;;;;;;;17.15;11.93;;;-1.50;99.90;;;;;;5006683;28;20549;-55
2023/01/18 04:49:19;;;;;;;19.73;12.82;;;-1.40;99.90;;;;;;5005902;28;20054;-54
2023/01/18 04:51:45;;;;;;;15.63;11.93;;;-1.80;99.90;;;;;;5008030;28;20041;-55
2023/01/18 04:54:13;;;;;;;16.75;13.30;;;-1.20;99.90;;;;;;5007646;28;20042;-55
2023/01/18 04:56:39;;;;;;;17.90;13.68;;;-1.80;99.90;;;;;;5006860;28;20045;-55
2023/01/18 04:59:05;;;;;;;15.50;9.63;;;-1.30;99.90;;;;;;5006945;28;20049;-55
2023/01/18 05:01:32;;;;;;;16.08;12.90;;;-1.40;99.90;;;;;;5007414;28;20046;-56
2023/01/18 05:03:58;;;;;;;20.08;12.55;;;-1.40;99.90;;;;;;5007006;28;20053;-56
2023/01/18 05:06:24;;;;;;;17.50;11.73;;;-1.30;99.90;;;;;;5007458;28;20049;-57
2023/01/18 05:08:50;;;;;;;17.08;11.00;;;-1.70;99.90;;;;;;5007155;28;20050;-57
2023/01/18 05:11:19;;;;;;;14.52;9.88;;;-1.20;99.90;;;;;;5007419;28;20080;-56
2023/01/18 05:13:45;;;;;;;17.40;13.05;;;0.60;99.90;;;;;;5006611;28;20041;-57
2023/01/18 05:16:22;;;;;;;13.13;9.32;;;-1.80;99.90;;;;;;5007110;28;20056;-56
2023/01/18 05:18:48;;;;;;;17.00;11.73;;;-2.90;99.90;;;;;;5006486;28;20104;-56
2023/01/18 05:21:14;;;;;;;16.50;12.15;;;-1.70;99.90;;;;;;5007411;28;20379;-55
2023/01/18 05:23:40;;;;;;;13.90;9.30;;;-1.80;99.90;;;;;;5006796;28;20056;-55
2023/01/18 05:26:13;;;;;;;17.02;11.73;;;-1.20;99.90;;;;;;5006385;28;20503;-57
2023/01/18 05:28:40;;;;;;;16.80;12.23;;;-1.70;99.90;;;;;;5006383;28;20068;-57
2023/01/18 05:31:05;;;;;;;21.35;13.38;;;-1.70;99.90;;;;;;5007012;28;20042;-57
2023/01/18 05:33:31;;;;;;;18.13;12.13;;;-1.70;99.90;;;;;;5006051;28;20084;-57
2023/01/18 05:35:57;;;;;;;16.38;11.05;;;-1.00;99.90;;;;;;5006857;28;20045;-57
2023/01/18 05:38:23;;;;;;;16.73;11.65;;;-1.30;99.90;;;;;;5006565;28;20073;-53
2023/01/18 05:40:53;;;;;;;18.30;12.15;;;-1.40;99.90;;;;;;5006922;28;20053;-54
2023/01/18 05:43:24;;;;;;;13.75;10.20;;;-1.20;99.90;;;;;;5005888;28;20046;-55
2023/01/18 05:45:49;;;;;;;13.35;10.30;;;-1.60;99.90;;;;;;5006683;28;20038;-56
2023/01/18 05:48:15;;;;;;;18.15;12.93;;;-1.40;99.90;;;;;;5006675;28;20510;-58
2023/01/18 05:50:43;;;;;;;17.77;11.95;;;-1.60;99.90;;;;;;5006399;28;20049;-56
2023/01/18 05:53:09;;;;;;;12.20;6.55;;;-1.60;99.90;;;;;;5006397;28;20116;-56
2023/01/18 05:55:35;;;;;;;14.23;10.05;;;-1.50;99.90;;;;;;5006703;28;20507;-57
2023/01/18 05:58:01;;;;;;;15.27;11.77;;;-1.50;99.90;;;;;;5005150;28;20092;-59
2023/01/18 06:00:28;;;;;;;15.85;10.13;;;-1.10;99.90;;;;;;5005086;28;20050;-56
2023/01/18 06:02:54;;;;;;;19.42;10.23;;;-1.50;99.90;;;;;;5006360;28;20060;-54
2023/01/18 06:05:21;;;;;;;15.02;10.65;;;-0.50;99.90;;;;;;5006100;28;20124;-52
2023/01/18 06:07:47;;;;;;;16.58;9.95;;;0.30;99.90;;;;;;5006221;28;20092;-54
2023/01/18 06:10:13;;;;;;;16.52;11.48;;;-1.20;99.90;;;;;;5005756;28;20522;-57
2023/01/18 06:12:39;;;;;;;16.38;12.20;;;-1.20;99.90;;;;;;5004516;28;20038;-55
2023/01/18 06:15:06;;;;;;;16.27;12.32;;;-0.50;99.90;;;;;;5006035;28;20081;-55
2023/01/18 06:17:33;;;;;;;14.75;10.43;;;-1.60;99.90;;;;;;5005847;28;20478;-54
2023/01/18 06:19:59;;;;;;;15.40;9.93;;;-1.60;99.90;;;;;;5005423;28;20060;-53
2023/01/18 06:22:24;;;;;;;16.90;11.35;;;-1.40;99.90;;;;;;5005730;28;20501;-56
2023/01/18 06:24:50;;;;;;;14.50;9.68;;;-1.60;99.90;;;;;;5006239;28;20161;-53
2023/01/18 06:27:16;;;;;;;14.45;11.23;;;-1.40;99.90;;;;;;5005205;28;20487;-55
2023/01/18 06:29:41;;;;;;;16.13;11.32;;;-1.60;99.90;;;;;;5005244;28;20046;-56
2023/01/18 06:32:07;;;;;;;14.27;10.68;;;-1.20;99.90;;;;;;5005773;28;20422;-55
2023/01/18 06:34:33;;;;;;;16.90;11.20;;;-0.90;99.90;;;;;;5005481;28;20054;-56
2023/01/18 06:36:58;;;;;;;16.27;10.75;;;-0.40;99.90;;;;;;5004930;28;20038;-55
2023/01/18 06:39:25;;;;;;;18.40;10.93;;;-1.60;99.90;;;;;;5005552;28;20045;-55
2023/01/18 06:41:50;;;;;;;16.77;11.85;;;-1.10;99.90;;;;;;5005518;28;20438;-55
2023/01/18 06:44:16;;;;;;;14.80;10.38;;;-1.60;99.90;;;;;;5004982;28;20050;-54
2023/01/18 06:46:43;;;;;;;14.80;10.75;;;-0.60;99.90;;;;;;5005595;28;20042;-55
2023/01/18 06:49:10;;;;;;;13.65;10.45;;;-1.50;99.90;;;;;;5005278;28;20061;-54
2023/01/18 06:51:36;;;;;;;14.60;10.20;;;-1.10;99.90;;;;;;5005236;28;20506;-55
2023/01/18 06:54:01;;;;;;;17.42;11.00;;;-1.10;99.90;;;;;;5004975;28;20042;-55
2023/01/18 06:56:28;;;;;;;15.48;10.35;;;-1.00;99.90;;;;;;5004516;28;20111;-55
2023/01/18 06:58:56;;;;;;;11.40;7.65;;;-1.50;99.90;;;;;;5005309;28;20042;-55
2023/01/18 07:01:22;;;;;;;9.18;6.25;;;-1.40;99.90;;;;;;5003441;28;20060;-56
2023/01/18 07:03:48;;;;;;;16.75;9.73;;;-1.40;99.90;;;;;;5005293;28;20053;-55
2023/01/18 07:06:13;;;;;;;13.73;9.50;;;-1.20;99.90;;;;;;5004892;28;20050;-55
2023/01/18 07:08:39;;;;;;;12.68;8.10;;;0.80;99.90;;;;;;5003530;28;20398;-58
2023/01/18 07:11:07;;;;;;;14.10;10.43;;;-1.30;99.90;;;;;;5005221;28;20143;-57
2023/01/18 07:13:33;;;;;;;15.43;8.98;;;0.10;99.90;;;;;;5004388;28;20072;-55
2023/01/18 07:16:00;;;;;;;15.25;9.57;;;-1.30;99.90;;;;;;5004710;28;20541;-54
2023/01/18 07:18:28;;;;;;;15.63;10.77;;;-0.80;99.90;;;;;;4987198;28;20042;-57
2023/01/18 07:21:08;;;;;;;12.18;8.52;;;-0.90;99.90;;;;;;4985591;28;20082;-57
2023/01/18 07:23:36;;;;;;;12.15;8.75;;;-1.20;99.90;;;;;;4984784;28;20479;-57
2023/01/18 07:26:10;;;;;;;15.80;11.18;;;-1.00;99.90;;;;;;4988323;28;20077;-56
2023/01/18 07:28:36;;;;;;;16.42;10.55;;;-1.10;99.90;;;;;;4988479;28;20097;-56
2023/01/18 07:31:03;;;;;;;17.35;10.45;;;-0.80;99.90;;;;;;4989158;28;20050;-57
2023/01/18 07:33:30;;;;;;;12.98;8.10;;;-0.90;99.90;;;;;;4989175;28;20038;-56
2023/01/18 07:35:56;;;;;;;16.80;11.38;;;0.90;99.90;;;;;;4989310;28;20050;-58
2023/01/18 07:38:23;;;;;;;19.83;11.88;;;-1.00;99.90;;;;;;4989358;28;20695;-57
2023/01/18 07:40:49;;;;;;;15.82;10.90;;;-1.30;99.90;;;;;;4988872;28;20132;-57
2023/01/18 07:43:15;;;;;;;14.88;9.15;;;1.10;99.90;;;;;;4988541;28;20456;-58
2023/01/18 07:45:42;;;;;;;15.85;10.57;;;-1.30;99.90;;;;;;4988760;28;20398;-57
2023/01/18 07:48:08;;;;;;;12.60;9.13;;;-1.30;99.90;;;;;;4989262;28;20042;-57
2023/01/18 07:50:34;;;;;;;16.13;8.73;;;-1.20;99.90;;;;;;4988906;28;20058;-56
2023/01/18 07:53:08;;;;;;;15.45;8.93;;;-1.20;99.90;;;;;;4988629;28;20035;-57
2023/01/18 07:55:34;;;;;;;13.00;8.45;;;-1.20;99.90;;;;;;4988131;28;20480;-58
2023/01/18 07:58:00;;;;;;;14.15;7.85;;;-0.90;99.90;;;;;;4988192;28;20061;-56
2023/01/18 08:00:27;;;;;;;12.30;7.70;;;-1.50;99.90;;;;;;4988610;28;20042;-57
2023/01/18 08:02:53;;;;;;;13.63;7.50;;;-1.50;99.90;;;;;;4989216;28;20089;-57
2023/01/18 08:05:22;;;;;;;12.77;7.68;;;-1.10;99.90;;;;;;4987130;28;20052;-57
2023/01/18 08:07:49;;;;;;;13.70;7.25;;;-1.00;99.90;;;;;;4988572;28;20057;-55
2023/01/18 08:10:15;;;;;;;13.93;10.90;;;-0.90;99.90;;;;;;4988470;28;20054;-57
2023/01/18 08:12:41;;;;;;;12.32;8.02;;;-1.00;99.90;;;;;;4988013;28;20046;-57
2023/01/18 08:15:07;;;;;;;16.05;9.88;;;-1.20;99.90;;;;;;4986729;28;20053;-57
2023/01/18 08:17:36;;;;;;;12.63;7.80;;;-1.10;99.90;;;;;;4988782;28;20034;-57
2023/01/18 08:20:04;;;;;;;14.60;9.73;;;-0.80;99.90;;;;;;4988579;28;20125;-55
2023/01/18 08:22:31;;;;;;;13.77;8.65;;;-0.70;99.90;;;;;;4988423;28;20042;-57
2023/01/18 08:24:56;;;;;;;14.90;10.82;;;-1.10;99.90;;;;;;4989156;28;20125;-57
2023/01/18 08:27:22;;;;;;;12.93;7.93;;;-0.90;99.90;;;;;;4987581;28;20343;-55
2023/01/18 08:29:48;;;;;;;17.52;10.25;;;-1.10;99.90;;;;;;4988472;28;20078;-57
2023/01/18 08:32:14;;;;;;;10.63;6.65;;;-0.70;99.90;;;;;;4988449;28;20046;-55
2023/01/18 08:34:39;;;;;;;14.75;9.77;;;-0.70;99.90;;;;;;4988056;28;20046;-57
2023/01/18 08:37:05;;;;;;;16.35;10.30;;;-1.00;99.90;;;;;;4987829;28;20039;-56
2023/01/18 08:39:31;;;;;;;13.35;8.35;;;-0.70;99.90;;;;;;4987437;28;20041;-56
2023/01/18 08:41:57;;;;;;;13.13;8.63;;;;;;;;;;4987670;28;20109;-57
2023/01/18 08:44:22;;;;;;;11.93;6.28;;;-0.90;99.90;;;;;;4988206;28;20116;-57
2023/01/18 08:46:48;;;;;;;16.48;10.35;;;-0.70;99.90;;;;;;4987715;28;20038;-56
2023/01/18 08:49:15;;;;;;;14.02;8.45;;;-0.80;99.90;;;;;;4987766;28;20088;-57
2023/01/18 08:51:41;;;;;;;15.63;10.32;;;1.30;99.90;;;;;;4987893;28;20085;-57
2023/01/18 08:54:07;;;;;;;12.20;7.50;;;-0.90;99.90;;;;;;4987704;28;20042;-56
2023/01/18 08:56:33;;;;;;;11.00;5.93;;;-0.50;99.90;;;;;;4986976;28;20530;-58
2023/01/18 08:58:58;;;;;;;15.10;8.43;;;-0.60;99.90;;;;;;4987973;28;20046;-58
2023/01/18 09:01:24;;;;;;;13.93;10.32;;;-0.60;99.90;;;;;;4987882;28;20523;-57
2023/01/18 09:03:53;;;;;;;16.75;11.10;;;-0.40;99.90;;;;;;4987404;28;20042;-57
2023/01/18 09:06:19;;;;;;;13.05;7.97;;;-0.50;99.90;;;;;;4987723;28;20443;-57
2023/01/18 09:08:48;;;;;;;14.88;10.23;;;-0.60;99.90;;;;;;4987551;28;20117;-57
2023/01/18 09:11:15;;;;;;;15.85;11.70;;;-0.50;99.90;;;;;;4986425;28;20050;-57
2023/01/18 09:13:41;;;;;;;14.65;9.45;;;-0.10;99.90;;;;;;4987427;28;20038;-58
2023/01/18 09:16:08;;;;;;;12.05;6.72;;;-0.30;99.90;;;;;;4987538;28;20034;-57
2023/01/18 09:18:35;;;;;;;9.40;6.32;;;0.10;99.90;;;;;;4987044;28;20312;-58
2023/01/18 09:21:09;;;;;;;14.32;8.50;;;-0.10;99.90;;;;;;4987593;28;20368;-60
2023/01/18 09:23:42;;;;;;;12.38;8.95;;;-0.10;99.90;;;;;;4987248;28;20066;-58
2023/01/18 09:26:13;;;;;;;11.55;7.55;;;0.00;99.90;;;;;;4985004;28;20170;-57
2023/01/18 09:28:38;;;;;;;15.63;10.38;;;0.40;99.90;;;;;;4987469;28;20073;-58
2023/01/18 09:31:09;;;;;;;13.50;8.70;;;0.70;99.90;;;;;;4987148;28;20510;-58
2023/01/18 09:33:36;;;;;;;14.02;9.52;;;0.30;99.90;;;;;;4986700;28;20274;-57
2023/01/18 09:36:04;;;;;;;16.30;9.77;;;0.50;99.90;;;;;;4986026;28;20140;-58
2023/01/18 09:38:30;;;;;;;12.13;7.93;;;0.30;99.90;;;;;;4987506;28;20046;-58
2023/01/18 09:40:57;;;;;;;11.95;6.45;;;1.00;99.90;;;;;;4985968;28;20050;-58
2023/01/18 09:43:34;;;;;;;16.30;9.15;;;2.20;99.90;;;;;;4987246;28;20481;-56
2023/01/18 09:46:00;;;;;;;13.15;9.90;;;1.00;99.90;;;;;;4986609;28;20053;-57
2023/01/18 09:48:38;;;;;;;16.95;10.05;;;1.30;99.90;;;;;;4986208;28;20097;-58
2023/01/18 09:51:11;;;;;;;11.73;8.50;;;0.90;99.90;;;;;;4987063;28;20042;-57
2023/01/18 09:53:39;;;;;;;13.68;8.00;;;1.50;99.90;;;;;;4986419;28;20190;-59
2023/01/18 09:56:50;;;;;;;13.45;8.63;;;2.00;99.90;;;;;;4986379;28;20137;-63
2023/01/18 09:59:19;;;;;;;11.15;8.20;;;2.30;99.90;;;;;;4986525;28;20042;-61
2023/01/18 10:01:46;;;;;;;10.80;8.07;;;2.40;99.90;;;;;;4986807;28;20050;-60
2023/01/18 10:04:17;;;;;;;11.40;7.50;;;2.70;99.90;;;;;;4986227;28;20081;-60
2023/01/18 10:06:49;;;;;;;9.98;6.65;;;2.70;99.90;;;;;;4987100;28;20053;-60
2023/01/18 10:09:21;;;;;;;11.68;8.07;;;3.10;99.90;;;;;;4986072;28;20458;-62
2023/01/18 10:11:47;;;;;;;10.25;7.55;;;2.90;99.90;;;;;;4986026;28;20062;-62
2023/01/18 10:14:16;;;;;;;11.95;7.88;;;2.90;99.90;;;;;;4986497;28;20047;-61
2023/01/18 10:16:42;;;;;;;10.93;7.93;;;2.90;99.90;;;;;;4986126;28;20046;-62
2023/01/18 10:19:21;;;;;;;10.35;7.13;;;3.30;99.90;;;;;;4986054;28;20048;-62
2023/01/18 10:22:17;;;;;;;11.35;7.38;;;3.00;99.90;;;;;;4986407;28;20093;-62
2023/01/18 10:24:50;;;;;;;9.93;7.47;;;3.50;99.90;;;;;;4986139;28;20519;-62
2023/01/18 10:27:34;;;;;;;9.70;6.50;;;3.40;99.90;;;;;;4985189;28;20046;-60
2023/01/18 10:30:13;;;;;;;9.38;6.82;;;3.50;99.90;;;;;;4985190;28;20046;-60
2023/01/18 10:32:46;;;;;;;9.30;6.88;;;3.70;99.90;;;;;;4985692;28;20684;-60
2023/01/18 10:35:23;;;;;;;10.50;7.35;;;3.70;99.90;;;;;;4986387;28;20554;-60
2023/01/18 10:37:51;;;;;;;13.65;6.88;;;3.90;99.90;;;;;;4985273;28;20507;-60
2023/01/18 10:40:16;;;;;;;10.05;7.07;;;3.90;99.90;;;;;;4985042;28;20065;-60
2023/01/18 10:42:52;;;;;;;11.82;7.45;;;4.10;99.90;;;;;;4985209;28;20042;-59
2023/01/18 10:45:23;;;;;;;11.05;7.05;;;4.20;99.90;;;;;;4985366;28;20046;-60
2023/01/18 10:47:52;;;;;;;9.43;6.15;;;4.00;99.90;;;;;;4985789;28;20153;-60
2023/01/18 10:50:32;;;;;;;9.48;5.93;;;4.40;99.90;;;;;;4985777;28;20042;-60
2023/01/18 10:52:59;;;;;;;9.55;6.53;;;4.60;99.90;;;;;;4985856;28;20057;-60
2023/01/18 10:55:25;;;;;;;13.45;7.35;;;4.40;99.90;;;;;;4985594;28;20060;-60
2023/01/18 10:57:53;;;;;;;9.23;6.40;;;4.40;99.90;;;;;;4984525;28;20042;-60
2023/01/18 11:00:31;;;;;;;9.85;6.03;;;4.10;99.90;;;;;;4985734;28;20328;-62
2023/01/18 11:02:58;;;;;;;9.90;6.53;;;4.30;99.90;;;;;;4985501;28;20073;-62
2023/01/18 11:05:24;;;;;;;9.55;7.00;;;;;;;;;;4985471;28;20051;-63
2023/01/18 11:08:10;;;;;;;10.48;6.05;;;4.50;99.90;;;;;;4985366;28;20399;-63
2023/01/18 11:10:42;;;;;;;10.93;6.22;;;4.40;99.90;;;;;;4985274;28;20058;-63
2023/01/18 11:13:26;;;;;;;9.43;5.78;;;4.80;99.90;;;;;;4985773;28;20046;-63
2023/01/18 11:16:14;;;;;;;7.97;5.95;;;4.50;99.90;;;;;;4983832;28;20046;-62
2023/01/18 11:18:58;;;;;;;9.90;6.35;;;4.60;99.90;;;;;;4985491;28;20066;-62
2023/01/18 11:21:29;;;;;;;9.30;5.18;;;4.40;99.90;;;;;;4985278;28;20042;-63
2023/01/18 11:23:55;;;;;;;8.13;6.30;;;4.50;99.90;;;;;;4967688;28;20130;-63
2023/01/18 11:26:22;;;;;;;9.35;6.22;;;4.60;99.90;;;;;;4984165;28;20117;-62
2023/01/18 11:28:56;;;;;;;9.80;6.00;;;4.60;99.90;;;;;;4984118;28;20426;-63
2023/01/18 11:31:24;;;;;;;7.43;5.57;;;4.50;99.90;;;;;;4985053;28;20498;-63
2023/01/18 11:34:00;;;;;;;8.02;4.40;;;4.60;99.90;;;;;;4984721;28;20053;-60
2023/01/18 11:36:52;;;;;;;9.48;5.85;;;4.70;99.90;;;;;;4985194;28;20045;-60
2023/01/18 11:39:30;;;;;;;8.52;5.80;;;4.60;99.90;;;;;;4982391;28;20062;-60
2023/01/18 11:42:33;;;;;;;8.32;4.80;;;4.80;99.90;;;;;;4984555;28;20130;-60
2023/01/18 11:45:11;;;;;;;6.78;4.40;;;4.80;99.90;;;;;;4963851;28;20793;-60
2023/01/18 11:48:02;;;;;;;7.47;4.70;;;4.60;99.90;;;;;;4984646;28;20104;-63
2023/01/18 11:50:34;;;;;;;6.85;4.90;;;4.50;99.90;;;;;;4983580;28;20050;-60
2023/01/18 11:53:40;;;;;;;8.68;5.70;;;4.50;99.90;;;;;;4983248;28;20066;-60
2023/01/18 11:56:25;;;;;;;9.43;4.22;;;4.90;99.90;;;;;;4983051;28;20054;-61
2023/01/18 11:58:51;;;;;;;8.90;5.72;;;4.50;99.90;;;;;;4984667;28;20656;-61
2023/01/18 12:01:35;;;;;;;8.93;5.03;;;4.90;99.90;;;;;;4984736;28;20117;-61
2023/01/18 12:04:16;;;;;;;7.22;4.20;;;4.90;99.90;;;;;;4986034;28;20046;-61
2023/01/18 12:06:45;;;;;;;7.05;4.22;;;4.60;99.90;;;;;;4985858;28;20096;-61
2023/01/18 12:09:40;;;;;;;8.95;4.70;;;4.40;99.90;;;;;;4985972;28;20411;-61
2023/01/18 12:12:24;;;;;;;8.15;5.15;;;4.40;99.90;;;;;;4986915;28;20506;-61
2023/01/18 12:15:26;;;;;;;8.20;4.93;;;4.70;99.90;;;;;;4990200;28;20395;-61
2023/01/18 12:17:57;;;;;;;8.80;5.43;;;4.60;99.90;;;;;;4990078;28;20046;-61
2023/01/18 12:20:54;;;;;;;6.70;3.92;;;5.00;99.90;;;;;;4989264;28;20057;-61
2023/01/18 12:23:30;;;;;;;7.10;4.88;;;4.60;99.90;;;;;;4989881;28;20437;-61
2023/01/18 12:26:12;;;;;;;9.02;5.45;;;4.60;99.90;;;;;;4987816;28;20123;-61
2023/01/18 12:28:52;;;;;;;8.85;4.75;;;4.80;99.90;;;;;;4989287;28;20521;-61
2023/01/18 12:31:39;;;;;;;6.00;3.65;;;4.80;99.90;;;;;;4988744;28;20042;-62
2023/01/18 12:34:39;;;;;;;9.05;4.93;;;4.60;99.90;;;;;;4986448;28;20125;-63
2023/01/18 12:37:44;;;;;;;6.10;3.88;;;4.50;99.90;;;;;;4975653;28;20081;-64
2023/01/18 12:40:37;;;;;;;13.15;5.18;;;4.50;99.90;;;;;;4986744;28;20094;-62
2023/01/18 12:43:20;;;;;;;6.22;4.00;;;4.50;99.90;;;;;;4988991;28;20061;-64
2023/01/18 12:46:02;;;;;;;10.27;4.32;;;4.50;99.90;;;;;;4988841;28;20125;-64
2023/01/18 12:48:46;;;;;;;6.43;3.97;;;4.50;99.90;;;;;;4989149;28;20050;-64
2023/01/18 12:51:19;;;;;;;8.73;5.13;;;4.40;99.90;;;;;;4989311;28;20793;-64
2023/01/18 12:53:59;;;;;;;6.82;3.35;;;4.60;99.90;;;;;;4988453;28;20065;-64
2023/01/18 12:56:26;;;;;;;6.82;5.00;;;4.60;99.90;;;;;;4987803;28;20108;-63
2023/01/18 12:58:59;;;;;;;9.50;5.05;;;4.60;99.90;;;;;;4989248;28;20101;-63
2023/01/18 13:01:29;;;;;;;8.77;5.05;;;4.50;99.90;;;;;;4989190;28;20057;-63
2023/01/18 13:04:00;;;;;;;6.53;4.55;;;4.60;99.90;;;;;;4988837;28;20154;-62
2023/01/18 13:06:27;;;;;;;10.45;4.38;;;4.50;99.90;;;;;;4987872;28;20046;-63
2023/01/18 13:08:55;;;;;;;10.57;5.05;;;4.60;99.90;;;;;;4987570;28;20653;-60
2023/01/18 13:11:23;;;;;;;8.43;4.70;;;4.60;99.90;;;;;;4984685;28;20043;-63
2023/01/18 13:13:58;;;;;;;8.00;4.90;;;4.80;99.90;;;;;;4985766;28;20511;-62
2023/01/18 13:16:49;;;;;;;9.80;5.03;;;4.70;99.90;;;;;;4985466;28;20339;-63
2023/01/18 13:19:28;;;;;;;8.02;4.47;;;4.60;99.90;;;;;;4985559;28;20309;-62
2023/01/18 13:22:07;;;;;;;8.57;4.55;;;4.50;99.90;;;;;;4986496;28;20046;-63
2023/01/18 13:24:39;;;;;;;6.93;4.30;;;4.60;99.90;;;;;;4986765;28;20057;-62
2023/01/18 13:27:11;;;;;;;8.88;4.35;;;4.40;99.90;;;;;;4984419;28;20054;-62
2023/01/18 13:29:38;;;;;;;8.70;4.03;;;4.60;99.90;;;;;;4986588;28;20163;-63
2023/01/18 13:32:37;;;;;;;6.30;3.92;;;4.60;99.90;;;;;;4986879;28;20089;-63
2023/01/18 13:35:13;;;;;;;5.40;3.38;;;4.50;99.90;;;;;;4986899;28;20341;-64